Time;durP1;ratioP1;P1;durP2;ratioP2;P2;SDS_P1;SDS_P2;PMS_P1;PMS_P2;Temp;Humidity;BMP_temperature;BMP_pressure;BME280_temperature;BME280_humidity;BME280_pressure;Samples;Min_cycle;Max_cycle;Signal;HPM_P1;HPM_P2
2023/10/21 00:01:30;;;;;;;0.88;0.50;;;15.00;99.90;;;;;;4991718;28;20402;-86
2023/10/21 00:03:56;;;;;;;1.40;0.60;;;13.40;99.90;;;;;;4955507;28;20395;-87
2023/10/21 00:06:21;;;;;;;0.60;0.40;;;13.40;99.90;;;;;;4956383;28;20406;-87
2023/10/21 00:08:47;;;;;;;1.80;0.50;;;13.50;99.90;;;;;;4955978;28;20475;-88
2023/10/21 00:11:13;;;;;;;0.75;0.40;;;13.40;99.90;;;;;;4955686;28;20926;-87
2023/10/21 00:13:39;;;;;;;2.00;0.50;;;12.80;99.90;;;;;;4955844;28;20392;-87
2023/10/21 00:16:05;;;;;;;0.70;0.50;;;12.90;99.90;;;;;;4956111;28;20396;-87
2023/10/21 00:18:30;;;;;;;1.10;0.50;;;13.60;99.90;;;;;;4955866;28;20817;-88
2023/10/21 00:20:56;;;;;;;0.70;0.30;;;13.50;99.90;;;;;;4955761;28;20395;-86
2023/10/21 00:23:24;;;;;;;1.00;0.50;;;13.40;99.90;;;;;;4989747;28;20808;-87
2023/10/21 00:25:50;;;;;;;1.10;0.40;;;13.70;99.90;;;;;;4975263;28;20467;-88
2023/10/21 00:28:16;;;;;;;1.50;0.70;;;13.90;99.90;;;;;;4984565;28;20406;-89
2023/10/21 00:30:45;;;;;;;0.60;0.30;;;13.90;99.90;;;;;;4984559;28;20398;-88
2023/10/21 00:33:11;;;;;;;0.50;0.30;;;;;;;;;;4982811;28;20409;-88
2023/10/21 00:35:37;;;;;;;1.75;0.30;;;13.90;99.90;;;;;;4976163;28;20917;-87
2023/10/21 00:38:03;;;;;;;1.70;0.40;;;13.80;99.90;;;;;;4975618;28;20402;-88
2023/10/21 00:40:29;;;;;;;0.50;0.40;;;;;;;;;;4975710;28;20411;-88
2023/10/21 00:42:54;;;;;;;0.80;0.40;;;14.10;99.90;;;;;;4990017;28;20934;-88
2023/10/21 00:45:20;;;;;;;0.40;0.30;;;13.50;99.90;;;;;;4973011;28;20393;-86
2023/10/21 00:47:45;;;;;;;1.17;0.40;;;14.10;99.90;;;;;;4956071;28;20523;-87
2023/10/21 00:50:11;;;;;;;0.60;0.30;;;13.70;99.90;;;;;;4973538;28;20455;-86
2023/10/21 00:52:46;;;;;;;1.40;0.40;;;14.20;99.90;;;;;;4958667;28;20398;-86
2023/10/21 00:55:12;;;;;;;0.70;0.40;;;14.20;99.90;;;;;;4986178;28;20396;-86
2023/10/21 00:57:37;;;;;;;1.00;0.40;;;16.70;99.90;;;;;;4972525;28;20415;-86
2023/10/21 01:00:10;;;;;;;1.17;0.50;;;14.20;99.90;;;;;;4989760;28;20392;-87
2023/10/21 01:02:37;;;;;;;0.77;0.50;;;14.30;99.90;;;;;;4977263;28;20509;-86
2023/10/21 01:05:02;;;;;;;0.50;0.40;;;14.80;99.90;;;;;;4990004;28;20396;-87
2023/10/21 01:07:33;;;;;;;1.73;0.60;;;14.40;99.90;;;;;;4977118;28;20891;-89
2023/10/21 01:09:59;;;;;;;0.60;0.30;;;13.70;99.90;;;;;;4959569;28;20764;-88
2023/10/21 01:12:24;;;;;;;0.80;0.50;;;14.10;99.90;;;;;;4967204;28;20402;-89
2023/10/21 01:14:50;;;;;;;0.80;0.40;;;14.40;99.90;;;;;;4977949;28;20412;-88
2023/10/21 01:17:15;;;;;;;1.40;0.40;;;16.00;99.90;;;;;;4978852;28;20755;-88
2023/10/21 01:19:41;;;;;;;0.40;0.30;;;14.50;99.90;;;;;;4978948;28;20405;-89
2023/10/21 01:22:06;;;;;;;0.80;0.50;;;14.50;99.90;;;;;;4995179;28;20799;-89
2023/10/21 01:24:32;;;;;;;0.83;0.40;;;14.60;99.90;;;;;;4978627;28;20886;-89
2023/10/21 01:26:58;;;;;;;1.40;0.35;;;14.20;99.90;;;;;;4992295;28;20503;-89
2023/10/21 01:29:24;;;;;;;1.17;0.40;;;14.30;99.90;;;;;;4959596;28;20801;-89
2023/10/21 01:31:49;;;;;;;0.80;0.50;;;13.90;99.90;;;;;;4959211;28;20771;-89
2023/10/21 01:34:15;;;;;;;1.40;0.40;;;14.30;99.90;;;;;;4959320;28;20392;-90
2023/10/21 01:36:41;;;;;;;1.50;0.40;;;13.80;99.90;;;;;;4976730;28;20403;-89
2023/10/21 01:39:10;;;;;;;1.30;0.50;;;15.80;99.90;;;;;;4959414;28;20398;-90
2023/10/21 01:41:37;;;;;;;1.60;0.40;;;14.50;99.90;;;;;;4961981;28;20408;-89
2023/10/21 01:44:02;;;;;;;1.00;0.40;;;13.80;99.90;;;;;;4960789;28;20392;-89
2023/10/21 01:46:28;;;;;;;1.80;0.50;;;14.60;99.90;;;;;;4960246;28;20388;-90
2023/10/21 01:48:53;;;;;;;1.67;0.53;;;14.60;99.90;;;;;;4967692;28;20475;-88
2023/10/21 01:51:19;;;;;;;0.50;0.40;;;14.80;99.90;;;;;;4970309;28;20406;-89
2023/10/21 01:53:45;;;;;;;1.50;0.40;;;15.00;99.90;;;;;;4979403;28;20937;-90
2023/10/21 01:56:10;;;;;;;1.43;0.40;;;14.90;99.90;;;;;;4979608;28;20395;-89
2023/10/21 01:58:36;;;;;;;0.80;0.50;;;15.10;99.90;;;;;;4965591;28;20443;-90
2023/10/21 02:01:09;;;;;;;1.73;0.40;;;15.10;99.90;;;;;;4976184;28;20384;-88
2023/10/21 02:03:35;;;;;;;0.90;0.40;;;14.10;99.90;;;;;;4959167;28;20400;-89
2023/10/21 02:06:05;;;;;;;0.77;0.47;;;14.70;99.90;;;;;;4959451;28;20487;-90
2023/10/21 02:08:31;;;;;;;1.10;0.70;;;18.30;99.90;;;;;;4959208;28;20404;-89
2023/10/21 02:10:57;;;;;;;1.60;0.50;;;15.20;99.90;;;;;;4958752;28;20480;-90
2023/10/21 02:13:23;;;;;;;2.00;0.45;;;15.10;99.90;;;;;;4958781;28;20487;-90
2023/10/21 02:15:50;;;;;;;1.10;0.30;;;15.20;99.90;;;;;;4958965;28;20490;-89
2023/10/21 02:18:16;;;;;;;0.80;0.43;;;15.10;99.90;;;;;;4959551;28;20503;-90
2023/10/21 02:20:42;;;;;;;1.00;0.50;;;14.70;99.90;;;;;;4961244;28;20496;-90
2023/10/21 02:23:07;;;;;;;0.90;0.40;;;14.90;99.90;;;;;;4967157;28;20403;-90
2023/10/21 02:25:33;;;;;;;1.10;0.50;;;14.60;99.90;;;;;;4975838;28;20396;-91
2023/10/21 02:28:02;;;;;;;0.60;0.30;;;13.50;99.90;;;;;;4959276;28;20458;-90
2023/10/21 02:30:29;;;;;;;0.60;0.40;;;15.90;99.90;;;;;;4959718;28;20880;-90
2023/10/21 02:32:55;;;;;;;0.50;0.40;;;15.10;99.90;;;;;;4966488;28;20384;-89
2023/10/21 02:35:21;;;;;;;0.90;0.50;;;15.10;99.90;;;;;;4978074;28;20777;-92
2023/10/21 02:37:47;;;;;;;1.10;0.40;;;14.90;99.90;;;;;;4985435;28;20418;-91
2023/10/21 02:40:15;;;;;;;1.20;0.40;;;14.90;99.90;;;;;;4989652;28;20457;-91
2023/10/21 02:42:42;;;;;;;0.77;0.40;;;15.10;99.90;;;;;;4979455;28;20767;-89
2023/10/21 02:45:08;;;;;;;1.92;0.30;;;15.40;99.90;;;;;;4998727;23;20434;-80
2023/10/21 02:47:34;;;;;;;0.90;0.40;;;15.40;99.90;;;;;;4996045;28;20395;-81
2023/10/21 02:50:00;;;;;;;1.20;0.40;;;15.30;99.90;;;;;;4995972;28;20390;-81
2023/10/21 02:52:25;;;;;;;1.00;0.30;;;15.40;99.90;;;;;;4978958;28;20393;-81
2023/10/21 02:54:51;;;;;;;0.80;0.30;;;15.50;99.90;;;;;;4997797;28;20434;-81
2023/10/21 02:57:16;;;;;;;1.20;0.50;;;15.40;99.90;;;;;;4997877;28;20444;-81
2023/10/21 02:59:42;;;;;;;0.60;0.30;;;15.10;99.90;;;;;;4998248;28;20401;-80
2023/10/21 03:02:07;;;;;;;0.60;0.30;;;14.90;99.90;;;;;;4997934;28;20986;-80
2023/10/21 03:04:33;;;;;;;0.80;0.30;;;15.20;99.90;;;;;;4979156;28;20405;-81
2023/10/21 03:06:59;;;;;;;0.80;0.40;;;14.80;99.90;;;;;;4997498;28;20874;-81
2023/10/21 03:09:26;;;;;;;1.60;0.30;;;15.10;99.90;;;;;;4997397;28;20429;-81
2023/10/21 03:11:52;;;;;;;0.70;0.30;;;15.10;99.90;;;;;;4997884;28;20457;-80
2023/10/21 03:14:17;;;;;;;0.60;0.40;;;15.20;99.90;;;;;;4978855;28;20394;-82
2023/10/21 03:16:43;;;;;;;0.63;0.30;;;15.30;99.90;;;;;;4996306;28;20426;-81
2023/10/21 03:19:09;;;;;;;1.00;0.40;;;15.20;99.90;;;;;;5001007;28;20454;-80
2023/10/21 03:21:35;;;;;;;0.60;0.40;;;15.20;99.90;;;;;;5005084;28;20410;-81
2023/10/21 03:24:01;;;;;;;0.45;0.30;;;15.20;99.90;;;;;;4989450;28;20406;-80
2023/10/21 03:26:26;;;;;;;1.30;0.35;;;15.00;99.90;;;;;;5000206;28;20809;-81
2023/10/21 03:28:52;;;;;;;0.50;0.30;;;15.20;99.90;;;;;;4981328;28;20398;-81
2023/10/21 03:31:17;;;;;;;0.80;0.30;;;14.70;99.90;;;;;;4998791;28;20390;-82
2023/10/21 03:33:44;;;;;;;1.20;0.40;;;15.30;99.90;;;;;;4998416;28;20422;-81
2023/10/21 03:36:10;;;;;;;1.00;0.30;;;15.30;99.90;;;;;;4980760;28;20390;-81
2023/10/21 03:38:35;;;;;;;0.80;0.30;;;15.00;99.90;;;;;;4997153;28;20438;-82
2023/10/21 03:41:09;;;;;;;0.90;0.40;;;15.30;99.90;;;;;;4979834;28;20770;-82
2023/10/21 03:43:35;;;;;;;1.00;0.30;;;15.20;99.90;;;;;;4979845;28;20387;-81
2023/10/21 03:46:03;;;;;;;0.40;0.30;;;15.20;99.90;;;;;;4997499;28;20413;-81
2023/10/21 03:48:29;;;;;;;1.15;0.45;;;15.20;99.90;;;;;;4996017;28;20394;-81
2023/10/21 03:51:10;;;;;;;0.50;0.30;;;15.10;99.90;;;;;;4996147;28;20394;-80
2023/10/21 03:53:35;;;;;;;0.50;0.30;;;15.20;99.90;;;;;;4995680;28;20440;-80
2023/10/21 03:56:02;;;;;;;1.70;0.30;;;14.70;99.90;;;;;;4997038;28;20406;-80
2023/10/21 03:58:29;;;;;;;0.50;0.30;;;15.10;99.90;;;;;;5010259;28;20776;-80
2023/10/21 04:00:57;;;;;;;0.50;0.30;;;15.10;99.90;;;;;;5002546;28;20383;-83
2023/10/21 04:03:24;;;;;;;0.80;0.40;;;15.20;99.90;;;;;;4996074;28;20390;-82
2023/10/21 04:05:50;;;;;;;0.80;0.40;;;14.70;99.90;;;;;;4978510;28;20486;-80
2023/10/21 04:08:16;;;;;;;1.70;0.30;;;15.10;99.90;;;;;;4995776;28;20429;-80
2023/10/21 04:10:41;;;;;;;1.30;0.40;;;15.50;99.90;;;;;;4977949;28;20391;-80
2023/10/21 04:13:07;;;;;;;0.40;0.30;;;15.20;99.90;;;;;;5004692;28;20399;-81
2023/10/21 04:15:32;;;;;;;0.90;0.40;;;15.10;99.90;;;;;;4993721;28;20393;-81
2023/10/21 04:17:58;;;;;;;0.80;0.30;;;15.20;99.90;;;;;;5011659;28;20415;-80
2023/10/21 04:20:24;;;;;;;0.98;0.38;;;15.50;99.90;;;;;;4993703;28;20398;-79
2023/10/21 04:22:49;;;;;;;1.65;0.30;;;15.20;99.90;;;;;;5005974;28;20394;-80
2023/10/21 04:25:16;;;;;;;1.50;0.40;;;15.20;99.90;;;;;;5007284;28;20802;-80
2023/10/21 04:27:41;;;;;;;0.43;0.30;;;15.20;99.90;;;;;;4987509;28;20402;-80
2023/10/21 04:30:08;;;;;;;0.47;0.30;;;15.20;99.90;;;;;;5007335;28;20402;-80
2023/10/21 04:32:33;;;;;;;5.40;0.50;;;15.30;99.90;;;;;;5003081;28;20391;-81
2023/10/21 04:35:00;;;;;;;0.63;0.30;;;15.30;99.90;;;;;;4995166;28;20752;-82
2023/10/21 04:37:25;;;;;;;0.47;0.30;;;14.80;99.90;;;;;;4995036;28;20402;-81
2023/10/21 04:39:53;;;;;;;2.10;0.40;;;15.20;99.90;;;;;;4995344;28;20399;-82
2023/10/21 04:42:18;;;;;;;1.80;0.40;;;15.20;99.90;;;;;;4978037;28;20432;-81
2023/10/21 04:44:44;;;;;;;0.82;0.30;;;15.20;99.90;;;;;;4995078;28;20410;-82
2023/10/21 04:47:11;;;;;;;0.70;0.30;;;14.60;99.90;;;;;;4995118;28;20394;-82
2023/10/21 04:49:36;;;;;;;0.50;0.30;;;15.20;99.90;;;;;;4994572;28;20421;-81
2023/10/21 04:52:03;;;;;;;0.83;0.33;;;15.10;99.90;;;;;;4977453;28;20410;-82
2023/10/21 04:54:29;;;;;;;0.80;0.30;;;15.20;99.90;;;;;;5002970;28;20402;-80
2023/10/21 04:56:54;;;;;;;0.60;0.30;;;15.00;99.90;;;;;;4999453;28;20407;-81
2023/10/21 04:59:20;;;;;;;0.50;0.40;;;14.70;99.90;;;;;;4996060;28;20382;-83
2023/10/21 05:01:46;;;;;;;1.00;0.30;;;14.60;99.90;;;;;;4995430;28;21159;-81
2023/10/21 05:04:11;;;;;;;1.52;0.40;;;14.60;99.90;;;;;;4995529;28;20395;-82
2023/10/21 05:06:37;;;;;;;1.00;0.35;;;14.60;99.90;;;;;;4977782;28;20763;-82
2023/10/21 05:09:03;;;;;;;0.70;0.30;;;14.60;99.90;;;;;;4978239;28;20492;-82
2023/10/21 05:11:29;;;;;;;0.50;0.30;;;14.60;99.90;;;;;;4978576;28;20383;-82
2023/10/21 05:13:54;;;;;;;1.80;0.32;;;14.70;99.90;;;;;;4977664;28;20902;-81
2023/10/21 05:16:20;;;;;;;1.30;0.70;;;14.70;99.90;;;;;;4996004;28;20489;-82
2023/10/21 05:18:45;;;;;;;1.30;0.40;;;14.70;99.90;;;;;;4995492;28;20406;-82
2023/10/21 05:21:11;;;;;;;1.20;0.60;;;14.70;99.90;;;;;;4996604;28;20422;-82
2023/10/21 05:23:36;;;;;;;1.30;0.40;;;14.70;99.90;;;;;;4999473;28;20400;-81
2023/10/21 05:26:02;;;;;;;0.80;0.47;;;14.80;99.90;;;;;;5002511;28;20386;-81
2023/10/21 05:28:28;;;;;;;1.50;0.50;;;14.80;99.90;;;;;;4996859;28;20391;-81
2023/10/21 05:30:53;;;;;;;1.40;0.70;;;14.70;99.90;;;;;;4995834;28;20473;-82
2023/10/21 05:33:19;;;;;;;1.10;0.30;;;14.80;99.90;;;;;;4996299;28;20398;-81
2023/10/21 05:35:45;;;;;;;3.00;0.40;;;14.60;99.90;;;;;;4978228;28;20774;-81
2023/10/21 05:38:10;;;;;;;1.20;0.50;;;14.70;99.90;;;;;;4995169;28;20981;-82
2023/10/21 05:40:36;;;;;;;1.50;0.50;;;14.70;99.90;;;;;;4999233;28;20383;-81
2023/10/21 05:43:02;;;;;;;0.70;0.30;;;14.50;99.90;;;;;;4983860;28;20399;-82
2023/10/21 05:45:27;;;;;;;1.20;0.47;;;14.60;99.90;;;;;;5000556;28;20489;-82
2023/10/21 05:47:53;;;;;;;1.43;0.33;;;14.60;99.90;;;;;;4965179;28;20411;-80
2023/10/21 05:50:21;;;;;;;1.70;0.60;;;13.70;99.90;;;;;;4999614;28;20978;-82
2023/10/21 05:52:46;;;;;;;0.63;0.40;;;14.50;99.90;;;;;;4981571;28;20793;-82
2023/10/21 05:55:12;;;;;;;1.70;0.30;;;14.50;99.90;;;;;;4998173;28;20394;-82
2023/10/21 05:57:38;;;;;;;1.70;0.40;;;14.40;99.90;;;;;;5001242;28;20898;-82
2023/10/21 06:00:07;;;;;;;1.90;0.40;;;14.40;99.90;;;;;;4984789;28;20387;-81
2023/10/21 06:02:32;;;;;;;1.45;0.52;;;14.40;99.90;;;;;;4983579;28;20406;-82
2023/10/21 06:04:58;;;;;;;2.00;0.70;;;14.40;99.90;;;;;;5001941;28;20509;-82
2023/10/21 06:07:23;;;;;;;0.50;0.30;;;14.20;99.90;;;;;;5000529;28;20501;-81
2023/10/21 06:09:49;;;;;;;1.80;0.60;;;14.30;99.90;;;;;;4984005;28;20782;-81
2023/10/21 06:12:15;;;;;;;0.80;0.40;;;14.20;99.90;;;;;;4983421;28;20449;-81
2023/10/21 06:14:43;;;;;;;1.40;0.40;;;14.20;99.90;;;;;;5000537;28;20390;-84
2023/10/21 06:17:09;;;;;;;1.02;0.50;;;14.20;99.90;;;;;;5000295;28;20422;-81
2023/10/21 06:19:34;;;;;;;0.98;0.30;;;14.20;99.90;;;;;;4999183;28;20405;-80
2023/10/21 06:22:00;;;;;;;2.90;0.60;;;14.30;99.90;;;;;;4998901;28;20391;-81
2023/10/21 06:24:25;;;;;;;1.87;0.60;;;13.60;99.90;;;;;;5001188;28;20386;-80
2023/10/21 06:26:51;;;;;;;1.60;0.80;;;14.30;99.90;;;;;;5000088;28;20458;-81
2023/10/21 06:29:16;;;;;;;1.83;0.80;;;14.00;99.90;;;;;;4999930;28;20425;-81
2023/10/21 06:31:42;;;;;;;1.80;0.60;;;14.40;99.90;;;;;;4999477;28;20418;-81
2023/10/21 06:34:08;;;;;;;1.70;0.87;;;14.30;99.90;;;;;;4998964;28;20456;-81
2023/10/21 06:36:34;;;;;;;2.42;0.60;;;14.40;99.90;;;;;;4999189;28;20394;-81
2023/10/21 06:39:00;;;;;;;0.60;0.30;;;14.30;99.90;;;;;;4998228;28;20424;-81
2023/10/21 06:41:25;;;;;;;0.77;0.40;;;14.60;99.90;;;;;;4998418;28;20390;-81
2023/10/21 06:43:54;;;;;;;1.70;0.43;;;14.40;99.90;;;;;;4999669;28;20517;-81
2023/10/21 06:46:19;;;;;;;4.10;0.50;;;14.30;99.90;;;;;;5010989;28;20375;-82
2023/10/21 06:48:45;;;;;;;3.00;0.60;;;14.00;99.90;;;;;;5000794;28;20388;-82
2023/10/21 06:51:13;;;;;;;1.50;0.50;;;14.40;99.90;;;;;;5002924;28;20418;-82
2023/10/21 06:53:38;;;;;;;1.13;0.50;;;14.40;99.90;;;;;;5000126;28;20398;-82
2023/10/21 06:56:09;;;;;;;1.83;0.63;;;14.40;99.90;;;;;;4999664;28;20477;-82
2023/10/21 06:58:35;;;;;;;1.60;0.55;;;14.30;99.90;;;;;;5000232;28;20410;-82
2023/10/21 07:01:01;;;;;;;2.80;0.87;;;14.30;99.90;;;;;;5000543;28;20407;-82
2023/10/21 07:03:26;;;;;;;2.58;0.80;;;14.30;99.90;;;;;;4999835;28;20418;-82
2023/10/21 07:05:52;;;;;;;1.10;0.40;;;14.30;99.90;;;;;;4998737;28;20389;-82
2023/10/21 07:08:18;;;;;;;3.70;1.00;;;13.60;99.90;;;;;;5000162;28;20434;-82
2023/10/21 07:10:43;;;;;;;1.90;0.40;;;16.60;99.90;;;;;;4998725;28;20390;-82
2023/10/21 07:13:09;;;;;;;1.50;0.60;;;14.40;99.90;;;;;;4998364;28;20401;-81
2023/10/21 07:15:34;;;;;;;1.57;0.50;;;14.40;99.90;;;;;;4980659;28;21217;-83
2023/10/21 07:18:00;;;;;;;1.85;0.70;;;14.40;99.90;;;;;;4997800;28;20810;-83
2023/10/21 07:20:26;;;;;;;2.07;0.73;;;14.50;99.90;;;;;;4997961;28;20438;-82
2023/10/21 07:22:55;;;;;;;1.77;0.80;;;14.50;99.90;;;;;;4979363;28;20390;-82
2023/10/21 07:25:23;;;;;;;2.35;0.63;;;14.50;99.90;;;;;;4983688;28;20429;-82
2023/10/21 07:27:49;;;;;;;1.70;0.60;;;14.50;99.90;;;;;;5008039;28;20905;-82
2023/10/21 07:30:15;;;;;;;3.47;0.68;;;14.50;99.90;;;;;;5002081;28;20418;-82
2023/10/21 07:32:41;;;;;;;1.80;0.70;;;14.20;99.90;;;;;;4998440;28;20391;-82
2023/10/21 07:35:07;;;;;;;0.80;0.50;;;14.40;99.90;;;;;;4981007;28;20395;-82
2023/10/21 07:37:33;;;;;;;2.28;0.70;;;14.40;99.90;;;;;;4980282;28;20480;-82
2023/10/21 07:39:58;;;;;;;2.90;0.60;;;14.30;99.90;;;;;;4996227;28;20823;-82
2023/10/21 07:42:25;;;;;;;1.90;0.60;;;14.20;99.90;;;;;;4997297;28;20720;-82
2023/10/21 07:44:51;;;;;;;1.20;0.70;;;14.00;99.90;;;;;;4981019;28;20407;-82
2023/10/21 07:47:17;;;;;;;2.40;0.50;;;14.20;99.90;;;;;;4997712;28;20464;-81
2023/10/21 07:49:43;;;;;;;1.10;0.60;;;14.40;99.90;;;;;;4980930;28;20914;-82
2023/10/21 07:52:09;;;;;;;1.15;0.80;;;14.30;99.90;;;;;;4999593;28;20386;-82
2023/10/21 07:54:38;;;;;;;2.70;0.63;;;14.30;99.90;;;;;;4981016;28;20468;-80
2023/10/21 07:57:05;;;;;;;1.30;0.70;;;14.20;99.90;;;;;;4982440;28;20417;-82
2023/10/21 07:59:30;;;;;;;1.95;0.52;;;14.40;99.90;;;;;;5010065;28;20390;-82
2023/10/21 08:01:56;;;;;;;3.20;0.68;;;14.40;99.90;;;;;;5013475;28;20401;-82
2023/10/21 08:04:24;;;;;;;2.10;0.60;;;14.40;99.90;;;;;;5013382;28;20447;-83
2023/10/21 08:06:50;;;;;;;1.90;0.50;;;14.40;99.90;;;;;;5011534;28;20521;-82
2023/10/21 08:09:17;;;;;;;1.60;0.50;;;14.50;99.90;;;;;;4983865;28;20474;-81
2023/10/21 08:11:43;;;;;;;1.70;0.80;;;14.50;99.90;;;;;;4999693;28;20468;-81
2023/10/21 08:14:10;;;;;;;1.17;0.40;;;14.60;99.90;;;;;;5007027;28;20413;-83
2023/10/21 08:16:36;;;;;;;1.70;0.63;;;14.50;99.90;;;;;;4999001;28;20414;-81
2023/10/21 08:19:02;;;;;;;1.80;0.30;;;14.60;99.90;;;;;;5017435;28;20498;-82
2023/10/21 08:21:28;;;;;;;1.48;0.68;;;14.50;99.90;;;;;;5017231;28;20377;-82
2023/10/21 08:23:53;;;;;;;0.80;0.50;;;14.20;99.90;;;;;;5000315;28;20394;-83
2023/10/21 08:26:19;;;;;;;3.00;0.60;;;14.40;99.90;;;;;;4990117;28;20441;-82
2023/10/21 08:28:44;;;;;;;1.77;0.90;;;14.50;99.90;;;;;;5000812;28;20829;-82
2023/10/21 08:31:10;;;;;;;1.67;0.63;;;14.50;99.90;;;;;;5002007;28;20487;-81
2023/10/21 08:33:36;;;;;;;0.70;0.47;;;14.50;99.90;;;;;;4997615;28;20425;-81
2023/10/21 08:36:01;;;;;;;1.50;0.60;;;14.40;99.90;;;;;;4998387;28;20826;-81
2023/10/21 08:38:27;;;;;;;2.40;0.60;;;14.50;99.90;;;;;;4999353;28;20422;-81
2023/10/21 08:40:53;;;;;;;1.10;0.40;;;14.60;99.90;;;;;;4998186;28;20394;-81
2023/10/21 08:43:19;;;;;;;0.70;0.50;;;14.70;99.90;;;;;;4997521;28;20391;-82
2023/10/21 08:45:45;;;;;;;1.17;0.57;;;14.70;99.90;;;;;;5008636;23;20450;-91
2023/10/21 08:48:12;;;;;;;0.90;0.40;;;14.60;99.90;;;;;;4978784;28;20406;-90
2023/10/21 08:50:39;;;;;;;1.90;0.40;;;14.40;99.90;;;;;;4976325;28;20505;-91
2023/10/21 08:53:13;;;;;;;0.93;0.50;;;13.60;99.90;;;;;;4975969;28;20394;-90
2023/10/21 08:55:39;;;;;;;1.20;0.40;;;17.10;99.90;;;;;;4975856;28;20403;-90
2023/10/21 08:58:06;;;;;;;0.82;0.50;;;14.50;99.90;;;;;;4975843;28;20779;-90
2023/10/21 09:00:33;;;;;;;2.35;0.57;;;14.60;99.90;;;;;;4975864;28;20405;-90
2023/10/21 09:02:59;;;;;;;1.52;0.43;;;14.50;99.90;;;;;;4975367;28;20390;-91
2023/10/21 09:05:25;;;;;;;2.70;0.60;;;17.20;99.90;;;;;;4977184;28;20442;-90
2023/10/21 09:07:50;;;;;;;1.52;0.60;;;15.10;99.90;;;;;;4976043;28;20390;-90
2023/10/21 09:10:17;;;;;;;1.30;0.50;;;14.00;99.90;;;;;;4976592;28;20426;-90
2023/10/21 09:12:42;;;;;;;1.10;0.60;;;14.30;99.90;;;;;;4975476;28;20484;-90
2023/10/21 09:15:09;;;;;;;2.75;0.65;;;14.90;99.90;;;;;;4980142;28;20426;-90
2023/10/21 09:17:45;;;;;;;2.08;0.50;;;15.40;99.90;;;;;;4980095;28;20485;-90
2023/10/21 09:20:17;;;;;;;1.10;0.50;;;14.50;99.90;;;;;;4980637;28;20826;-90
2023/10/21 09:22:45;;;;;;;1.10;0.50;;;15.40;99.90;;;;;;4983644;28;20390;-89
2023/10/21 09:25:19;;;;;;;1.40;0.70;;;14.50;99.90;;;;;;4985456;28;20391;-90
2023/10/21 09:27:53;;;;;;;0.80;0.43;;;15.30;99.90;;;;;;4994843;28;20382;-89
2023/10/21 09:30:26;;;;;;;0.93;0.40;;;15.30;99.90;;;;;;5004157;28;20406;-91
2023/10/21 09:33:01;;;;;;;2.97;0.70;;;15.40;99.90;;;;;;5004353;28;20397;-91
2023/10/21 09:35:27;;;;;;;2.00;0.70;;;15.30;99.90;;;;;;5001783;28;20383;-90
2023/10/21 09:37:54;;;;;;;1.40;0.40;;;;;;;;;;5002859;28;20413;-91
2023/10/21 09:40:21;;;;;;;2.60;0.40;;;15.30;99.90;;;;;;4988614;28;20406;-91
2023/10/21 09:42:49;;;;;;;1.10;0.50;;;17.90;99.90;;;;;;4983449;28;20394;-91
2023/10/21 09:45:18;;;;;;;0.90;0.50;;;18.50;99.90;;;;;;4983387;28;20908;-89
2023/10/21 09:47:45;;;;;;;1.10;0.40;;;14.80;99.90;;;;;;4987132;28;20410;-90
2023/10/21 09:50:13;;;;;;;1.50;0.50;;;16.90;99.90;;;;;;4984666;28;20433;-90
2023/10/21 09:53:05;;;;;;;1.35;0.50;;;15.50;99.90;;;;;;4984647;28;20386;-91
2023/10/21 09:55:34;;;;;;;1.30;0.40;;;15.60;99.90;;;;;;4984552;28;20466;-90
2023/10/21 09:58:00;;;;;;;1.50;0.70;;;15.60;99.90;;;;;;5002394;28;20588;-90
2023/10/21 10:00:26;;;;;;;1.98;0.68;;;13.50;99.90;;;;;;4984363;28;20394;-89
2023/10/21 10:02:54;;;;;;;1.20;0.70;;;15.60;99.90;;;;;;4983313;28;20530;-90
2023/10/21 10:05:20;;;;;;;1.13;0.60;;;15.60;99.90;;;;;;4984199;28;20390;-90
2023/10/21 10:07:47;;;;;;;1.67;0.50;;;15.60;99.90;;;;;;4966573;28;20404;-90
2023/10/21 10:10:15;;;;;;;2.10;0.60;;;15.60;99.90;;;;;;4999134;28;20406;-89
2023/10/21 10:12:44;;;;;;;2.40;0.60;;;14.10;99.90;;;;;;4980786;28;20798;-90
2023/10/21 10:15:32;;;;;;;2.05;0.50;;;14.00;99.90;;;;;;4981048;28;20399;-90
2023/10/21 10:18:09;;;;;;;1.58;0.50;;;15.80;99.90;;;;;;4980183;28;20425;-90
2023/10/21 10:20:43;;;;;;;0.80;0.50;;;15.90;99.90;;;;;;4982399;28;20478;-89
2023/10/21 10:23:09;;;;;;;1.50;0.50;;;15.20;99.90;;;;;;4981673;28;20878;-89
2023/10/21 10:25:39;;;;;;;1.45;0.80;;;15.60;99.90;;;;;;4985452;28;20402;-91
2023/10/21 10:28:07;;;;;;;1.23;0.57;;;15.60;99.90;;;;;;4980512;28;20398;-90
2023/10/21 10:30:36;;;;;;;1.95;0.55;;;14.40;99.90;;;;;;4982389;28;20394;-91
2023/10/21 10:33:07;;;;;;;1.80;0.50;;;16.10;99.90;;;;;;4984678;28;20405;-90
2023/10/21 10:35:42;;;;;;;2.10;0.60;;;19.60;99.90;;;;;;4981365;28;20394;-90
2023/10/21 10:38:24;;;;;;;2.65;0.50;;;14.50;99.90;;;;;;4981780;28;20711;-90
2023/10/21 10:41:38;;;;;;;1.30;0.57;;;16.30;99.90;;;;;;4997426;28;20456;-89
2023/10/21 10:44:03;;;;;;;3.30;0.60;;;16.30;99.90;;;;;;4996705;28;20394;-91
2023/10/21 10:46:31;;;;;;;1.35;0.70;;;18.40;1.00;;;;;;4981754;28;20406;-91
2023/10/21 10:49:05;;;;;;;1.50;0.60;;;16.30;1.00;;;;;;4981228;28;20410;-91
2023/10/21 10:51:43;;;;;;;1.30;0.50;;;16.50;1.00;;;;;;4965959;28;20437;-91
2023/10/21 10:54:15;;;;;;;1.80;0.40;;;15.60;1.00;;;;;;4997321;28;20409;-88
2023/10/21 10:56:49;;;;;;;1.38;0.50;;;16.50;1.00;;;;;;4980856;28;20391;-88
2023/10/21 10:59:18;;;;;;;2.15;0.60;;;18.80;1.00;;;;;;4981455;28;20778;-91
2023/10/21 11:01:55;;;;;;;1.10;0.50;;;18.20;1.00;;;;;;4980094;28;20417;-90
2023/10/21 11:04:21;;;;;;;1.63;0.60;;;17.40;1.00;;;;;;4978922;28;20464;-90
2023/10/21 11:06:56;;;;;;;1.20;0.50;;;17.30;1.00;;;;;;4980143;28;20386;-92
2023/10/21 11:09:30;;;;;;;0.70;0.40;;;18.00;1.00;;;;;;4980463;28;20390;-91
2023/10/21 11:11:58;;;;;;;1.90;0.50;;;17.80;1.00;;;;;;4982224;28;20394;-91
2023/10/21 11:14:27;;;;;;;4.90;1.00;;;17.80;1.00;;;;;;4984048;28;20391;-90
2023/10/21 11:16:53;;;;;;;0.93;0.50;;;;;;;;;;4981408;28;20386;-91
2023/10/21 11:19:19;;;;;;;1.08;0.50;;;17.00;1.00;;;;;;4983103;28;20397;-89
2023/10/21 11:21:50;;;;;;;1.23;0.60;;;16.50;1.00;;;;;;4981884;28;20446;-92
2023/10/21 11:24:18;;;;;;;0.70;0.40;;;16.40;1.00;;;;;;4979675;28;20394;-91
2023/10/21 11:26:49;;;;;;;2.20;0.50;;;16.30;1.00;;;;;;4981269;28;20395;-92
2023/10/21 11:29:16;;;;;;;0.90;0.50;;;16.40;1.00;;;;;;4981577;28;20398;-89
2023/10/21 11:31:42;;;;;;;1.00;0.60;;;16.60;1.00;;;;;;4979961;28;20399;-90
2023/10/21 11:34:12;;;;;;;1.65;0.50;;;17.20;1.00;;;;;;4979532;28;20477;-91
2023/10/21 11:36:45;;;;;;;1.73;0.85;;;18.10;1.00;;;;;;4980974;28;20410;-89
2023/10/21 11:39:14;;;;;;;1.25;0.52;;;20.80;1.00;;;;;;4979127;28;20413;-90
2023/10/21 11:41:50;;;;;;;1.30;0.50;;;19.60;1.00;;;;;;4979425;28;20391;-90
2023/10/21 11:44:18;;;;;;;1.50;0.50;;;19.90;1.00;;;;;;4980402;28;20585;-89
2023/10/21 11:46:47;;;;;;;1.00;0.50;;;22.60;1.00;;;;;;4992285;28;20398;-90
2023/10/21 11:49:18;;;;;;;1.87;0.80;;;19.90;1.00;;;;;;4988133;28;20527;-92
2023/10/21 11:51:46;;;;;;;1.45;0.50;;;21.10;1.00;;;;;;4986668;28;20399;-92
2023/10/21 12:03:29;;;;;;;1.83;0.65;;;18.70;1.00;;;;;;4998239;28;20437;-90
2023/10/21 12:05:45;;;;;;;0.75;0.40;;;19.40;1.00;;;;;;5015478;28;20417;-92
2023/10/21 12:09:34;;;;;;;0.60;0.40;;;20.10;1.00;;;;;;5018049;28;20414;-93
2023/10/21 12:22:12;;;;;;;1.20;0.60;;;;;;;;;;4978508;28;20438;-91
2023/10/21 12:38:38;;;;;;;1.70;0.60;;;19.00;1.00;;;;;;4945353;28;20975;-91
2023/10/21 12:43:49;;;;;;;1.55;0.68;;;19.60;1.00;;;;;;4981403;28;20435;-91
2023/10/21 12:46:17;;;;;;;1.20;0.60;;;19.00;1.00;;;;;;4961533;28;20396;-91
2023/10/21 12:48:51;;;;;;;1.13;0.60;;;18.60;1.00;;;;;;4979597;28;20392;-90
2023/10/21 12:51:24;;;;;;;1.35;0.60;;;18.20;1.00;;;;;;4978200;28;20399;-90
2023/10/21 12:53:50;;;;;;;1.88;0.85;;;18.90;1.00;;;;;;4959852;28;20411;-91
2023/10/21 12:56:16;;;;;;;2.90;0.70;;;22.10;1.00;;;;;;4976880;28;20396;-92
2023/10/21 12:58:43;;;;;;;0.93;0.52;;;20.10;1.00;;;;;;4978378;28;20432;-91
2023/10/21 13:01:14;;;;;;;1.02;0.40;;;20.90;1.00;;;;;;4977936;28;20388;-91
2023/10/21 13:03:40;;;;;;;2.30;0.60;;;;;;;;;;4977416;28;20490;-90
2023/10/21 13:06:09;;;;;;;1.20;0.60;;;20.70;1.00;;;;;;4979447;28;20411;-91
2023/10/21 13:08:35;;;;;;;0.98;0.57;;;20.30;1.00;;;;;;4964692;28;20397;-90
2023/10/21 13:11:02;;;;;;;2.20;0.60;;;20.80;1.00;;;;;;4998132;28;20409;-92
2023/10/21 13:13:28;;;;;;;2.20;0.65;;;;;;;;;;4978713;28;20390;-91
2023/10/21 13:15:56;;;;;;;1.10;0.47;;;20.70;1.00;;;;;;4976493;28;20398;-91
2023/10/21 13:18:22;;;;;;;1.90;0.60;;;20.80;1.00;;;;;;4976629;28;20902;-90
2023/10/21 13:20:52;;;;;;;1.80;0.60;;;20.60;1.00;;;;;;4980607;28;20389;-90
2023/10/21 13:23:18;;;;;;;1.70;0.60;;;23.70;1.00;;;;;;4978688;28;21059;-91
2023/10/21 13:25:43;;;;;;;1.70;0.60;;;17.80;1.00;;;;;;4995872;28;20442;-90
2023/10/21 13:28:09;;;;;;;1.30;0.70;;;21.60;1.00;;;;;;4978018;28;20394;-89